createdAt,value
2023-02-24T00:00:15.150Z,71.7
2023-02-24T00:05:51.458Z,71.8
2023-02-24T00:11:26.476Z,72
2023-02-24T00:17:03.312Z,71.9
2023-02-24T00:22:39.131Z,71.9
2023-02-24T00:28:14.317Z,71.7
2023-02-24T00:33:49.976Z,71.9
2023-02-24T00:39:25.127Z,72
2023-02-24T00:45:00.385Z,71.7
2023-02-24T00:50:36.339Z,71.6
2023-02-24T00:56:11.145Z,72
2023-02-24T01:01:48.274Z,72.2
2023-02-24T01:07:24.750Z,72.3
2023-02-24T01:12:59.933Z,72.2
2023-02-24T01:18:34.912Z,72.1
2023-02-24T01:24:11.513Z,72.3
2023-02-24T01:29:46.437Z,72.6
2023-02-24T01:35:21.600Z,72.6
2023-02-24T01:40:57.808Z,72.2
2023-02-24T01:46:32.940Z,72.1
2023-02-24T01:52:09.615Z,72.2
2023-02-24T01:57:44.758Z,72.3
2023-02-24T02:03:19.607Z,72.2
2023-02-24T02:08:55.290Z,72.3
2023-02-24T02:14:30.513Z,72.5
2023-02-24T02:20:05.395Z,72.8
2023-02-24T02:25:40.859Z,72.5
2023-02-24T02:31:16.762Z,72.7
2023-02-24T02:37:02.292Z,72.6
2023-02-24T02:42:38.184Z,72.3
2023-02-24T02:48:14.912Z,72.2
2023-02-24T02:53:50.253Z,72.4
2023-02-24T02:59:26.268Z,72.6
2023-02-24T03:05:02.464Z,72.8
2023-02-24T03:10:41.197Z,72.7
2023-02-24T03:16:16.697Z,72.6
2023-02-24T03:21:52.722Z,72.6
2023-02-24T03:27:28.190Z,72.7
2023-02-24T03:33:03.393Z,72.8
2023-02-24T03:38:38.423Z,72.5
2023-02-24T03:44:15.244Z,72.6
2023-02-24T03:49:51.302Z,72.6
2023-02-24T03:55:26.760Z,72.6
2023-02-24T04:01:01.822Z,72.7
2023-02-24T04:06:36.795Z,72.7
2023-02-24T04:12:14.765Z,72.8
2023-02-24T04:17:50.798Z,72.8
2023-02-24T04:23:27.195Z,72.8
2023-02-24T04:29:03.424Z,72.8
2023-02-24T04:34:39.002Z,73
2023-02-24T04:40:14.212Z,72.8
2023-02-24T04:45:49.318Z,73.1
2023-02-24T04:51:24.816Z,73.3
2023-02-24T04:57:00.244Z,73.5
2023-02-24T05:02:35.501Z,73.8
2023-02-24T05:08:11.244Z,74.1
2023-02-24T05:13:46.723Z,74.2
2023-02-24T05:19:23.996Z,73.9
2023-02-24T05:24:59.951Z,73.5
2023-02-24T05:30:35.290Z,73.9
2023-02-24T05:36:12.045Z,74.3
2023-02-24T05:41:47.376Z,74
2023-02-24T05:47:22.618Z,73.9
2023-02-24T05:52:58.042Z,74.1
2023-02-24T05:58:33.628Z,74.3
2023-02-24T06:04:09.544Z,74.5
2023-02-24T06:09:45.387Z,74.7
2023-02-24T06:15:20.836Z,75.4
2023-02-24T06:20:55.680Z,75.2
2023-02-24T06:26:31.167Z,74.5
2023-02-24T06:32:07.342Z,74.5
2023-02-24T06:37:44.259Z,74.5
2023-02-24T06:43:19.701Z,74.8
2023-02-24T06:48:55.506Z,74.9
2023-02-24T06:54:31.757Z,74.1
2023-02-24T07:00:06.579Z,74.2
2023-02-24T07:05:49.186Z,74
2023-02-24T07:11:26.292Z,73.4
2023-02-24T07:17:05.431Z,79
2023-02-24T07:22:41.060Z,81.8
2023-02-24T07:28:47.409Z,83.6
2023-02-24T07:34:25.886Z,85
2023-02-24T07:40:01.263Z,83.9
2023-02-24T07:45:36.937Z,84.5
2023-02-24T07:51:13.270Z,83.6
2023-02-24T07:56:52.982Z,83.2
2023-02-24T08:02:32.598Z,84.2
2023-02-24T08:08:12.757Z,85.2
2023-02-24T08:13:59.700Z,82.9
2023-02-24T08:19:55.288Z,81.2
2023-02-24T08:26:22.870Z,82.5
2023-02-24T08:32:09.485Z,83
2023-02-24T08:37:46.672Z,81.3
2023-02-24T08:43:22.116Z,81
2023-02-24T08:49:24.612Z,79.8
2023-02-24T08:55:07.351Z,80.6
2023-02-24T09:00:55.587Z,80.9
2023-02-24T09:06:31.508Z,81.5
2023-02-24T09:12:16.538Z,78.7
2023-02-24T09:17:57.153Z,77.3
2023-02-24T09:23:35.445Z,76.9
2023-02-24T09:29:11.841Z,76
2023-02-24T09:34:59.700Z,75.3
2023-02-24T09:40:35.998Z,73
2023-02-24T09:46:18.136Z,75.3
2023-02-24T09:52:01.456Z,74.7
2023-02-24T09:57:50.953Z,74.5
2023-02-24T10:03:47.428Z,74.3
2023-02-24T10:09:23.178Z,72.5
2023-02-24T10:15:01.927Z,71.1
2023-02-24T10:20:37.554Z,71.1
2023-02-24T10:26:14.797Z,71.1
2023-02-24T10:32:02.110Z,70.7
2023-02-24T10:37:39.591Z,69.4
2023-02-24T10:43:15.163Z,71.3
2023-02-24T10:49:12.410Z,68.6
2023-02-24T10:54:48.122Z,68.6
2023-02-24T11:00:24.316Z,66.9
2023-02-24T11:05:59.235Z,65.6
2023-02-24T11:11:37.784Z,64.9
2023-02-24T11:17:14.587Z,64.1
2023-02-24T11:23:23.222Z,64.6
2023-02-24T11:29:01.466Z,64
2023-02-24T11:35:02.768Z,63.9
2023-02-24T11:40:38.615Z,65.1
2023-02-24T11:46:14.091Z,63.6
2023-02-24T11:51:59.034Z,62.9
2023-02-24T11:57:34.715Z,61.7
2023-02-24T12:03:25.527Z,60.6
2023-02-24T12:09:00.845Z,59.3
2023-02-24T12:14:39.744Z,59.6
2023-02-24T12:20:21.132Z,60.4
2023-02-24T12:25:57.534Z,61.2
2023-02-24T12:31:41.399Z,62.2
2023-02-24T12:37:18.447Z,59.4
2023-02-24T12:42:53.898Z,60.2
2023-02-24T12:48:29.938Z,57.2
2023-02-24T12:54:49.851Z,58.1
2023-02-24T13:00:25.565Z,57.1
2023-02-24T13:06:00.451Z,58.5
2023-02-24T13:11:35.683Z,54.3
2023-02-24T13:17:11.073Z,55.3
2023-02-24T13:22:45.985Z,55.2
2023-02-24T13:28:38.064Z,51.7
2023-02-24T13:34:32.685Z,51.1
2023-02-24T13:40:23.858Z,49.8
2023-02-24T13:45:59.582Z,48.1
2023-02-24T13:51:36.555Z,47.4
2023-02-24T13:57:12.196Z,45.7
2023-02-24T14:02:58.735Z,38.1
2023-02-24T14:08:35.720Z,28.3
2023-02-24T14:14:15.469Z,28.6
2023-02-24T14:19:50.783Z,25.3
2023-02-24T14:25:26.810Z,24.6
2023-02-24T14:31:03.301Z,25.4
2023-02-24T14:36:54.103Z,23.3
2023-02-24T14:43:29.975Z,21.1
2023-02-24T14:49:07.826Z,21.5
2023-02-24T14:54:43.151Z,21.8
2023-02-24T15:00:23.680Z,20.7
2023-02-24T15:06:21.638Z,20.1
2023-02-24T15:11:59.944Z,19.7
2023-02-24T15:17:35.081Z,21.3
2023-02-24T15:23:39.068Z,24.6
2023-02-24T15:29:16.460Z,27.7
2023-02-24T15:34:51.655Z,30
2023-02-24T15:40:30.725Z,28.7
2023-02-24T15:46:06.887Z,30.6
2023-02-24T15:51:41.865Z,33.6
2023-02-24T15:57:23.517Z,37.5
2023-02-24T16:03:18.634Z,39.5
2023-02-24T16:09:04.339Z,42.8
2023-02-24T16:15:14.749Z,43.6
2023-02-24T16:21:23.842Z,46.7
2023-02-24T16:27:12.873Z,46.8
2023-02-24T16:32:56.954Z,47
2023-02-24T16:38:41.783Z,49.1
2023-02-24T16:44:26.448Z,48.2
2023-02-24T16:50:07.518Z,48.5
2023-02-24T16:55:48.909Z,48.2
2023-02-24T17:01:33.884Z,48.2
2023-02-24T17:07:20.311Z,50.5
2023-02-24T17:13:01.950Z,49.3
2023-02-24T17:18:43.350Z,50.7
2023-02-24T17:24:28.858Z,51.1
2023-02-24T17:30:04.328Z,52.1
2023-02-24T17:36:02.018Z,51.5
2023-02-24T17:41:44.639Z,51.4
2023-02-24T17:47:41.777Z,51.9
2023-02-24T17:53:17.374Z,54.9
2023-02-24T17:58:54.003Z,55.8
2023-02-24T18:04:33.240Z,56.5
2023-02-24T18:10:08.441Z,55.9
2023-02-24T18:15:50.752Z,53.9
2023-02-24T18:21:44.208Z,53.9
2023-02-24T18:27:19.739Z,54
2023-02-24T18:33:37.347Z,54.4
2023-02-24T18:39:57.676Z,54.3
2023-02-24T18:45:34.666Z,54.6
2023-02-24T18:51:10.966Z,54.8
2023-02-24T18:56:46.232Z,54.5
2023-02-24T19:02:21.980Z,53.8
2023-02-24T19:08:01.442Z,53.9
2023-02-24T19:13:36.349Z,54.9
2023-02-24T19:19:11.945Z,55.9
2023-02-24T19:24:50.913Z,56.7
2023-02-24T19:30:29.004Z,57.2
2023-02-24T19:36:07.651Z,57.9
2023-02-24T19:41:44.021Z,58.2
2023-02-24T19:47:18.969Z,58.3
2023-02-24T19:53:01.480Z,58.1
2023-02-24T20:00:32.860Z,58.1
2023-02-24T20:06:14.707Z,58.5
2023-02-24T20:12:28.576Z,59.5
2023-02-24T20:18:25.815Z,60.7
2023-02-24T20:24:47.558Z,60.4
2023-02-24T20:30:22.351Z,60.3
2023-02-24T20:35:57.398Z,60.4
2023-02-24T20:41:46.947Z,60.6
2023-02-24T20:47:22.152Z,60.3
2023-02-24T20:53:04.291Z,60.6
2023-02-24T20:58:45.384Z,59.6
2023-02-24T21:04:21.160Z,59.5
2023-02-24T21:09:59.063Z,60.3
2023-02-24T21:16:06.158Z,61
2023-02-24T21:21:46.197Z,60.5
2023-02-24T21:27:33.476Z,60.4
2023-02-24T21:33:08.900Z,61.1
2023-02-24T21:38:56.533Z,61.3
2023-02-24T21:44:46.423Z,61.3
2023-02-24T21:50:30.509Z,61.1
2023-02-24T21:56:12.401Z,61.2
2023-02-24T22:01:55.424Z,61.3
2023-02-24T22:07:33.501Z,61.4
2023-02-24T22:13:12.541Z,61.6
2023-02-24T22:19:17.896Z,62
2023-02-24T22:25:20.426Z,62.3
2023-02-24T22:31:01.324Z,62.1
2023-02-24T22:36:40.299Z,62.4
2023-02-24T22:42:24.543Z,62.7
2023-02-24T22:48:16.209Z,63.2
2023-02-24T22:55:23.716Z,63
2023-02-24T23:00:59.060Z,62.9
2023-02-24T23:06:35.967Z,62.9
2023-02-24T23:12:12.318Z,62.8
2023-02-24T23:18:16.980Z,63.1
2023-02-24T23:23:53.258Z,64
2023-02-24T23:29:29.483Z,63.6
2023-02-24T23:35:04.704Z,63.4
2023-02-24T23:40:51.107Z,63.6
2023-02-24T23:46:47.290Z,63.9
2023-02-24T23:52:43.396Z,64
2023-02-24T23:58:39.326Z,63.6
